San Antonio, Texas
Traffic Map
Current Weather Conditions
San Antonio, Texas
Clear
Clear
68°
Feels Like: 68°
Wind Chill: 68° Ceiling: Unl
Heat Index: 68° Visibility: 10mi
Dew Point: 58° Wind: 16mph
Humidity: 70% Direction: 10° (N)
Pressure: 29.82in Gusts: 22mph
Raw Report DataKSKF 280558Z AUTO 01014G19KT 10SM CLR 20/15 A2982 RMK AO2 SLP092 T02010145 10288 20188 403030165 53019 $
Traffic Incident Summary
Active as of:
Severity:
Category:
InformationThere was an issue retrieving the traffic information for this location. Please try a different location or try again shortly.
Advertisements
Track Severe Weather on mobile